Warren, Wisconsin
Current Conditions -  °F | °C
As of 1:15 AM on Thursday 18 Dec 2014 (Local Time) from KRNH Reporting Station
Overcast Overcast  
Wind Chill: 18°   Ceiling: 1500
Heat Index: 18°   Visibility: 10mi
Dew Point: 15°   Wind: 0mph
Humidity: 89%   Direction: NA
Pressure: 30.32"   Gusts: NA
Location:  44.9927°N, 92.5555°W
Report Text: KRNH 180715Z AUTO 00000KT 10SM OVC015 M08/M09 A3032 RMK AO2 T10801095
Loading
Personal Weather Stations






























Interactive Weather Map New forecast layout! Learn more

10-Day Weather Forecast

Advertisements
Track Severe Weather on mobile